sensor_id;sensor_type;location;lat;lon;timestamp;temperature;humidity
31759;DHT22;36334;51.366;0.020;2022-10-19T00:00:03;12.30;99.90
31759;DHT22;36334;51.366;0.020;2022-10-19T00:02:49;12.30;99.90
31759;DHT22;36334;51.366;0.020;2022-10-19T00:05:35;12.30;99.90
31759;DHT22;36334;51.366;0.020;2022-10-19T00:08:21;12.30;99.90
31759;DHT22;36334;51.366;0.020;2022-10-19T00:11:07;12.20;99.90
31759;DHT22;36334;51.366;0.020;2022-10-19T00:13:54;12.30;99.90
31759;DHT22;36334;51.366;0.020;2022-10-19T00:16:44;12.20;99.90
31759;DHT22;36334;51.366;0.020;2022-10-19T00:19:31;12.30;99.90
31759;DHT22;36334;51.366;0.020;2022-10-19T00:22:17;12.20;99.90
31759;DHT22;36334;51.366;0.020;2022-10-19T00:25:04;12.20;99.90
31759;DHT22;36334;51.366;0.020;2022-10-19T00:27:50;12.20;99.90
31759;DHT22;36334;51.366;0.020;2022-10-19T00:30:36;12.10;99.90
31759;DHT22;36334;51.366;0.020;2022-10-19T00:33:23;12.20;99.90
31759;DHT22;36334;51.366;0.020;2022-10-19T00:36:19;12.20;99.90
31759;DHT22;36334;51.366;0.020;2022-10-19T00:39:07;12.10;99.90
31759;DHT22;36334;51.366;0.020;2022-10-19T00:41:55;12.10;99.90
31759;DHT22;36334;51.366;0.020;2022-10-19T00:47:27;12.10;99.90
31759;DHT22;36334;51.366;0.020;2022-10-19T00:50:14;12.10;99.90
31759;DHT22;36334;51.366;0.020;2022-10-19T00:53:00;12.10;99.90
31759;DHT22;36334;51.366;0.020;2022-10-19T00:55:46;12.10;99.90
31759;DHT22;36334;51.366;0.020;2022-10-19T00:58:33;12.10;99.90
31759;DHT22;36334;51.366;0.020;2022-10-19T01:01:21;12.10;99.90
31759;DHT22;36334;51.366;0.020;2022-10-19T01:04:09;12.00;99.90
31759;DHT22;36334;51.366;0.020;2022-10-19T01:06:56;12.00;99.90
31759;DHT22;36334;51.366;0.020;2022-10-19T01:09:43;12.00;99.90
31759;DHT22;36334;51.366;0.020;2022-10-19T01:16:06;12.00;99.90
31759;DHT22;36334;51.366;0.020;2022-10-19T01:19:13;12.00;99.90
31759;DHT22;36334;51.366;0.020;2022-10-19T01:25:37;11.90;99.90
31759;DHT22;36334;51.366;0.020;2022-10-19T01:34:56;12.00;99.90
31759;DHT22;36334;51.366;0.020;2022-10-19T01:37:54;12.00;99.90
31759;DHT22;36334;51.366;0.020;2022-10-19T01:41:02;11.90;99.90
31759;DHT22;36334;51.366;0.020;2022-10-19T01:46:53;12.00;99.90
31759;DHT22;36334;51.366;0.020;2022-10-19T01:49:52;11.90;99.90
31759;DHT22;36334;51.366;0.020;2022-10-19T01:52:41;12.00;99.90
31759;DHT22;36334;51.366;0.020;2022-10-19T01:55:28;11.90;99.90
31759;DHT22;36334;51.366;0.020;2022-10-19T01:58:17;11.90;99.90
31759;DHT22;36334;51.366;0.020;2022-10-19T02:01:08;11.90;99.90
31759;DHT22;36334;51.366;0.020;2022-10-19T02:03:57;12.00;99.90
31759;DHT22;36334;51.366;0.020;2022-10-19T02:06:43;12.00;99.90
31759;DHT22;36334;51.366;0.020;2022-10-19T02:09:30;11.90;99.90
31759;DHT22;36334;51.366;0.020;2022-10-19T02:12:16;12.10;99.90
31759;DHT22;36334;51.366;0.020;2022-10-19T02:15:09;12.00;99.90
31759;DHT22;36334;51.366;0.020;2022-10-19T02:17:57;12.00;99.90
31759;DHT22;36334;51.366;0.020;2022-10-19T02:20:45;12.00;99.90
31759;DHT22;36334;51.366;0.020;2022-10-19T02:23:32;12.00;99.90
31759;DHT22;36334;51.366;0.020;2022-10-19T02:26:19;12.10;99.90
31759;DHT22;36334;51.366;0.020;2022-10-19T02:29:06;12.10;99.90
31759;DHT22;36334;51.366;0.020;2022-10-19T02:31:52;12.10;99.90
31759;DHT22;36334;51.366;0.020;2022-10-19T02:34:39;12.10;99.90
31759;DHT22;36334;51.366;0.020;2022-10-19T02:37:25;12.10;99.90
31759;DHT22;36334;51.366;0.020;2022-10-19T02:40:12;12.10;99.90
31759;DHT22;36334;51.366;0.020;2022-10-19T02:43:03;12.10;99.90
31759;DHT22;36334;51.366;0.020;2022-10-19T02:49:16;12.10;99.90
31759;DHT22;36334;51.366;0.020;2022-10-19T02:52:07;12.10;99.90
31759;DHT22;36334;51.366;0.020;2022-10-19T02:54:54;12.10;99.90
31759;DHT22;36334;51.366;0.020;2022-10-19T02:57:40;12.10;99.90
31759;DHT22;36334;51.366;0.020;2022-10-19T03:00:26;12.10;99.90
31759;DHT22;36334;51.366;0.020;2022-10-19T03:03:14;12.10;99.90
31759;DHT22;36334;51.366;0.020;2022-10-19T03:06:00;12.10;99.90
31759;DHT22;36334;51.366;0.020;2022-10-19T03:08:46;12.00;99.90
31759;DHT22;36334;51.366;0.020;2022-10-19T03:11:32;12.10;99.90
31759;DHT22;36334;51.366;0.020;2022-10-19T03:14:18;12.10;99.90
31759;DHT22;36334;51.366;0.020;2022-10-19T03:17:05;12.10;99.90
31759;DHT22;36334;51.366;0.020;2022-10-19T03:19:50;12.10;99.90
31759;DHT22;36334;51.366;0.020;2022-10-19T03:22:37;12.10;99.90
31759;DHT22;36334;51.366;0.020;2022-10-19T03:25:23;12.10;99.90
31759;DHT22;36334;51.366;0.020;2022-10-19T03:28:11;12.10;99.90
31759;DHT22;36334;51.366;0.020;2022-10-19T03:30:57;12.10;99.90
31759;DHT22;36334;51.366;0.020;2022-10-19T03:33:43;12.10;99.90
31759;DHT22;36334;51.366;0.020;2022-10-19T03:36:34;12.20;99.90
31759;DHT22;36334;51.366;0.020;2022-10-19T03:39:24;12.20;99.90
31759;DHT22;36334;51.366;0.020;2022-10-19T03:42:10;12.20;99.90
31759;DHT22;36334;51.366;0.020;2022-10-19T03:44:56;12.20;99.90
31759;DHT22;36334;51.366;0.020;2022-10-19T03:47:42;12.10;99.90
31759;DHT22;36334;51.366;0.020;2022-10-19T03:50:28;12.10;99.90
31759;DHT22;36334;51.366;0.020;2022-10-19T03:53:14;12.10;99.90
31759;DHT22;36334;51.366;0.020;2022-10-19T03:58:53;12.10;99.90
31759;DHT22;36334;51.366;0.020;2022-10-19T04:01:42;12.10;99.90
31759;DHT22;36334;51.366;0.020;2022-10-19T04:04:29;12.10;99.90
31759;DHT22;36334;51.366;0.020;2022-10-19T04:07:15;12.10;99.90
31759;DHT22;36334;51.366;0.020;2022-10-19T04:10:01;12.00;99.90
31759;DHT22;36334;51.366;0.020;2022-10-19T04:12:47;12.10;99.90
31759;DHT22;36334;51.366;0.020;2022-10-19T04:15:38;12.10;99.90
31759;DHT22;36334;51.366;0.020;2022-10-19T04:18:24;12.10;99.90
31759;DHT22;36334;51.366;0.020;2022-10-19T04:21:27;12.10;99.90
31759;DHT22;36334;51.366;0.020;2022-10-19T04:24:17;12.10;99.90
31759;DHT22;36334;51.366;0.020;2022-10-19T04:27:03;12.10;99.90
31759;DHT22;36334;51.366;0.020;2022-10-19T04:29:49;12.10;99.90
31759;DHT22;36334;51.366;0.020;2022-10-19T04:32:35;12.20;99.90
31759;DHT22;36334;51.366;0.020;2022-10-19T04:35:21;12.20;99.90
31759;DHT22;36334;51.366;0.020;2022-10-19T04:38:07;12.10;99.90
31759;DHT22;36334;51.366;0.020;2022-10-19T04:40:52;12.20;99.90
31759;DHT22;36334;51.366;0.020;2022-10-19T04:43:39;12.20;99.90
31759;DHT22;36334;51.366;0.020;2022-10-19T04:46:26;12.20;99.90
31759;DHT22;36334;51.366;0.020;2022-10-19T04:49:12;12.10;99.90
31759;DHT22;36334;51.366;0.020;2022-10-19T04:52:04;12.10;99.90
31759;DHT22;36334;51.366;0.020;2022-10-19T04:54:50;12.20;99.90
31759;DHT22;36334;51.366;0.020;2022-10-19T04:57:36;12.20;99.90
31759;DHT22;36334;51.366;0.020;2022-10-19T05:00:22;12.10;99.90
31759;DHT22;36334;51.366;0.020;2022-10-19T05:03:08;12.10;99.90
31759;DHT22;36334;51.366;0.020;2022-10-19T05:05:58;12.10;99.90
31759;DHT22;36334;51.366;0.020;2022-10-19T05:08:44;12.10;99.90
31759;DHT22;36334;51.366;0.020;2022-10-19T05:11:32;12.10;99.90
31759;DHT22;36334;51.366;0.020;2022-10-19T05:14:18;12.10;99.90
31759;DHT22;36334;51.366;0.020;2022-10-19T05:17:04;12.10;99.90
31759;DHT22;36334;51.366;0.020;2022-10-19T05:19:50;12.10;99.90
31759;DHT22;36334;51.366;0.020;2022-10-19T05:22:37;12.10;99.90
31759;DHT22;36334;51.366;0.020;2022-10-19T05:25:23;12.10;99.90
31759;DHT22;36334;51.366;0.020;2022-10-19T05:28:09;12.00;99.90
31759;DHT22;36334;51.366;0.020;2022-10-19T05:30:55;12.00;99.90
31759;DHT22;36334;51.366;0.020;2022-10-19T05:33:49;12.00;99.90
31759;DHT22;36334;51.366;0.020;2022-10-19T05:36:38;12.00;99.90
31759;DHT22;36334;51.366;0.020;2022-10-19T05:39:25;12.00;99.90
31759;DHT22;36334;51.366;0.020;2022-10-19T05:42:10;12.10;99.90
31759;DHT22;36334;51.366;0.020;2022-10-19T05:44:56;12.10;99.90
31759;DHT22;36334;51.366;0.020;2022-10-19T05:47:42;12.10;99.90
31759;DHT22;36334;51.366;0.020;2022-10-19T05:50:28;12.10;99.90
31759;DHT22;36334;51.366;0.020;2022-10-19T05:53:14;12.10;99.90
31759;DHT22;36334;51.366;0.020;2022-10-19T05:56:02;12.10;99.90
31759;DHT22;36334;51.366;0.020;2022-10-19T05:58:49;12.20;99.90
31759;DHT22;36334;51.366;0.020;2022-10-19T06:01:35;12.10;99.90
31759;DHT22;36334;51.366;0.020;2022-10-19T06:04:21;12.20;99.90
31759;DHT22;36334;51.366;0.020;2022-10-19T06:07:07;12.20;99.90
31759;DHT22;36334;51.366;0.020;2022-10-19T06:09:53;12.20;99.90
31759;DHT22;36334;51.366;0.020;2022-10-19T06:12:39;12.20;99.90
31759;DHT22;36334;51.366;0.020;2022-10-19T06:15:25;12.20;99.90
31759;DHT22;36334;51.366;0.020;2022-10-19T06:18:14;12.20;99.90
31759;DHT22;36334;51.366;0.020;2022-10-19T06:21:05;12.30;99.90
31759;DHT22;36334;51.366;0.020;2022-10-19T06:23:53;12.30;99.90
31759;DHT22;36334;51.366;0.020;2022-10-19T06:26:39;12.30;99.90
31759;DHT22;36334;51.366;0.020;2022-10-19T06:29:26;12.30;99.90
31759;DHT22;36334;51.366;0.020;2022-10-19T06:32:12;12.40;99.90
31759;DHT22;36334;51.366;0.020;2022-10-19T06:34:59;12.40;99.90
31759;DHT22;36334;51.366;0.020;2022-10-19T06:37:44;12.40;99.90
31759;DHT22;36334;51.366;0.020;2022-10-19T06:40:31;12.40;99.90
31759;DHT22;36334;51.366;0.020;2022-10-19T06:43:17;12.40;99.90
31759;DHT22;36334;51.366;0.020;2022-10-19T06:46:07;12.40;99.90
31759;DHT22;36334;51.366;0.020;2022-10-19T06:48:59;12.50;99.90
31759;DHT22;36334;51.366;0.020;2022-10-19T06:51:45;12.50;99.90
31759;DHT22;36334;51.366;0.020;2022-10-19T06:54:31;12.50;99.90
31759;DHT22;36334;51.366;0.020;2022-10-19T06:57:17;12.50;99.90
31759;DHT22;36334;51.366;0.020;2022-10-19T07:00:05;12.50;99.90
31759;DHT22;36334;51.366;0.020;2022-10-19T07:02:51;12.50;99.90
31759;DHT22;36334;51.366;0.020;2022-10-19T07:05:37;12.50;99.90
31759;DHT22;36334;51.366;0.020;2022-10-19T07:08:24;12.50;99.90
31759;DHT22;36334;51.366;0.020;2022-10-19T07:11:15;12.60;99.90
31759;DHT22;36334;51.366;0.020;2022-10-19T07:14:03;12.60;99.90
31759;DHT22;36334;51.366;0.020;2022-10-19T07:16:49;12.70;99.90
31759;DHT22;36334;51.366;0.020;2022-10-19T07:19:36;12.70;99.90
31759;DHT22;36334;51.366;0.020;2022-10-19T07:22:22;12.70;99.90
31759;DHT22;36334;51.366;0.020;2022-10-19T07:25:12;12.80;99.90
31759;DHT22;36334;51.366;0.020;2022-10-19T07:27:59;12.80;99.90
31759;DHT22;36334;51.366;0.020;2022-10-19T07:30:45;12.90;99.90
31759;DHT22;36334;51.366;0.020;2022-10-19T07:33:31;12.90;99.90
31759;DHT22;36334;51.366;0.020;2022-10-19T07:36:17;13.00;99.90
31759;DHT22;36334;51.366;0.020;2022-10-19T07:39:04;13.00;99.90
31759;DHT22;36334;51.366;0.020;2022-10-19T07:41:51;13.10;99.90
31759;DHT22;36334;51.366;0.020;2022-10-19T07:44:37;13.10;99.90
31759;DHT22;36334;51.366;0.020;2022-10-19T07:47:23;13.20;99.90
31759;DHT22;36334;51.366;0.020;2022-10-19T07:50:09;13.30;99.90
31759;DHT22;36334;51.366;0.020;2022-10-19T07:52:55;13.30;99.90
31759;DHT22;36334;51.366;0.020;2022-10-19T07:55:41;13.40;99.90
31759;DHT22;36334;51.366;0.020;2022-10-19T07:58:27;13.40;99.90
31759;DHT22;36334;51.366;0.020;2022-10-19T08:01:16;13.40;99.90
31759;DHT22;36334;51.366;0.020;2022-10-19T08:04:03;13.50;99.90
31759;DHT22;36334;51.366;0.020;2022-10-19T08:07:09;13.50;99.90
31759;DHT22;36334;51.366;0.020;2022-10-19T08:09:56;13.60;99.90
31759;DHT22;36334;51.366;0.020;2022-10-19T08:12:42;13.60;99.90
31759;DHT22;36334;51.366;0.020;2022-10-19T08:15:28;13.70;99.90
31759;DHT22;36334;51.366;0.020;2022-10-19T08:18:15;13.80;99.90
31759;DHT22;36334;51.366;0.020;2022-10-19T08:21:03;13.80;99.90
31759;DHT22;36334;51.366;0.020;2022-10-19T08:23:49;13.80;99.90
31759;DHT22;36334;51.366;0.020;2022-10-19T08:26:36;13.90;99.90
31759;DHT22;36334;51.366;0.020;2022-10-19T08:29:23;13.90;99.90
31759;DHT22;36334;51.366;0.020;2022-10-19T08:32:16;14.00;99.90
31759;DHT22;36334;51.366;0.020;2022-10-19T08:35:02;14.10;99.90
31759;DHT22;36334;51.366;0.020;2022-10-19T08:37:56;14.20;99.90
31759;DHT22;36334;51.366;0.020;2022-10-19T08:40:44;14.20;99.90
31759;DHT22;36334;51.366;0.020;2022-10-19T08:43:35;14.30;99.90
31759;DHT22;36334;51.366;0.020;2022-10-19T08:49:20;14.40;99.90
31759;DHT22;36334;51.366;0.020;2022-10-19T08:52:15;14.50;99.90
31759;DHT22;36334;51.366;0.020;2022-10-19T08:55:14;14.50;99.90
31759;DHT22;36334;51.366;0.020;2022-10-19T09:01:19;14.60;99.90
31759;DHT22;36334;51.366;0.020;2022-10-19T09:10:18;14.70;99.90
31759;DHT22;36334;51.366;0.020;2022-10-19T09:16:36;14.80;99.90
31759;DHT22;36334;51.366;0.020;2022-10-19T09:19:24;14.80;99.90
31759;DHT22;36334;51.366;0.020;2022-10-19T09:22:25;14.90;99.90
31759;DHT22;36334;51.366;0.020;2022-10-19T09:25:21;14.90;99.90
31759;DHT22;36334;51.366;0.020;2022-10-19T09:30:57;15.00;99.90
31759;DHT22;36334;51.366;0.020;2022-10-19T09:33:49;15.00;99.90
31759;DHT22;36334;51.366;0.020;2022-10-19T09:36:49;15.10;99.90
31759;DHT22;36334;51.366;0.020;2022-10-19T09:39:37;15.20;99.90
31759;DHT22;36334;51.366;0.020;2022-10-19T09:42:30;15.20;99.90
31759;DHT22;36334;51.366;0.020;2022-10-19T09:48:50;15.30;99.90
31759;DHT22;36334;51.366;0.020;2022-10-19T09:51:48;15.40;99.90
31759;DHT22;36334;51.366;0.020;2022-10-19T09:54:37;15.50;99.90
31759;DHT22;36334;51.366;0.020;2022-10-19T09:57:24;15.50;99.90
31759;DHT22;36334;51.366;0.020;2022-10-19T10:00:22;15.60;99.90
31759;DHT22;36334;51.366;0.020;2022-10-19T10:03:29;15.60;99.90
31759;DHT22;36334;51.366;0.020;2022-10-19T10:06:17;15.70;99.90
31759;DHT22;36334;51.366;0.020;2022-10-19T10:09:04;15.70;99.90
31759;DHT22;36334;51.366;0.020;2022-10-19T10:11:51;15.70;99.90
31759;DHT22;36334;51.366;0.020;2022-10-19T10:14:44;15.70;99.90
31759;DHT22;36334;51.366;0.020;2022-10-19T10:17:33;15.70;99.90
31759;DHT22;36334;51.366;0.020;2022-10-19T10:20:26;15.70;99.90
31759;DHT22;36334;51.366;0.020;2022-10-19T10:23:23;15.70;99.90
31759;DHT22;36334;51.366;0.020;2022-10-19T10:26:18;15.60;99.90
31759;DHT22;36334;51.366;0.020;2022-10-19T10:29:20;15.70;99.90
31759;DHT22;36334;51.366;0.020;2022-10-19T10:32:18;15.70;99.90
31759;DHT22;36334;51.366;0.020;2022-10-19T10:35:17;15.70;99.90
31759;DHT22;36334;51.366;0.020;2022-10-19T10:38:31;15.80;99.90
31759;DHT22;36334;51.366;0.020;2022-10-19T10:41:17;15.80;99.90
31759;DHT22;36334;51.366;0.020;2022-10-19T10:44:19;15.80;99.90
31759;DHT22;36334;51.366;0.020;2022-10-19T10:47:12;15.80;99.90
31759;DHT22;36334;51.366;0.020;2022-10-19T10:50:03;15.80;99.90
31759;DHT22;36334;51.366;0.020;2022-10-19T10:53:00;15.80;99.90
31759;DHT22;36334;51.366;0.020;2022-10-19T10:55:54;15.90;99.90
31759;DHT22;36334;51.366;0.020;2022-10-19T11:04:48;16.00;99.90
31759;DHT22;36334;51.366;0.020;2022-10-19T11:07:44;16.10;99.90
31759;DHT22;36334;51.366;0.020;2022-10-19T11:10:42;16.20;99.90
31759;DHT22;36334;51.366;0.020;2022-10-19T11:13:42;16.20;99.90
31759;DHT22;36334;51.366;0.020;2022-10-19T11:16:34;16.30;99.90
31759;DHT22;36334;51.366;0.020;2022-10-19T11:19:36;16.30;99.90
31759;DHT22;36334;51.366;0.020;2022-10-19T11:22:45;16.40;99.90
31759;DHT22;36334;51.366;0.020;2022-10-19T11:28:56;16.50;99.90
31759;DHT22;36334;51.366;0.020;2022-10-19T11:31:47;16.50;99.90
31759;DHT22;36334;51.366;0.020;2022-10-19T11:38:00;16.70;99.90
31759;DHT22;36334;51.366;0.020;2022-10-19T11:50:26;16.90;99.90
31759;DHT22;36334;51.366;0.020;2022-10-19T11:56:34;16.90;99.90
31759;DHT22;36334;51.366;0.020;2022-10-19T11:59:52;17.00;99.90
31759;DHT22;36334;51.366;0.020;2022-10-19T12:03:36;17.00;99.90
31759;DHT22;36334;51.366;0.020;2022-10-19T12:12:37;16.80;99.90
31759;DHT22;36334;51.366;0.020;2022-10-19T12:21:29;16.70;99.90
31759;DHT22;36334;51.366;0.020;2022-10-19T12:24:22;16.70;99.90
31759;DHT22;36334;51.366;0.020;2022-10-19T12:27:13;16.80;99.90
31759;DHT22;36334;51.366;0.020;2022-10-19T12:30:13;16.80;99.90
31759;DHT22;36334;51.366;0.020;2022-10-19T12:33:19;16.80;99.90
31759;DHT22;36334;51.366;0.020;2022-10-19T12:36:24;17.00;99.90
31759;DHT22;36334;51.366;0.020;2022-10-19T12:42:31;17.20;99.90
31759;DHT22;36334;51.366;0.020;2022-10-19T12:51:05;17.40;99.90
31759;DHT22;36334;51.366;0.020;2022-10-19T12:54:07;17.40;99.90
31759;DHT22;36334;51.366;0.020;2022-10-19T12:56:56;17.50;99.90
31759;DHT22;36334;51.366;0.020;2022-10-19T12:59:43;17.50;99.90
31759;DHT22;36334;51.366;0.020;2022-10-19T13:02:33;17.40;99.90
31759;DHT22;36334;51.366;0.020;2022-10-19T13:05:23;17.40;99.90
31759;DHT22;36334;51.366;0.020;2022-10-19T13:08:34;17.40;99.90
31759;DHT22;36334;51.366;0.020;2022-10-19T13:11:23;17.50;99.90
31759;DHT22;36334;51.366;0.020;2022-10-19T13:17:02;17.70;99.90
31759;DHT22;36334;51.366;0.020;2022-10-19T13:19:48;17.70;99.90
31759;DHT22;36334;51.366;0.020;2022-10-19T13:22:34;17.70;99.90
31759;DHT22;36334;51.366;0.020;2022-10-19T13:25:35;17.80;99.90
31759;DHT22;36334;51.366;0.020;2022-10-19T13:31:27;17.80;99.90
31759;DHT22;36334;51.366;0.020;2022-10-19T13:34:14;17.80;99.90
31759;DHT22;36334;51.366;0.020;2022-10-19T13:37:02;17.90;99.90
31759;DHT22;36334;51.366;0.020;2022-10-19T13:39:49;17.90;99.90
31759;DHT22;36334;51.366;0.020;2022-10-19T13:42:35;18.00;99.90
31759;DHT22;36334;51.366;0.020;2022-10-19T13:45:22;18.10;99.90
31759;DHT22;36334;51.366;0.020;2022-10-19T13:48:22;18.00;99.90
31759;DHT22;36334;51.366;0.020;2022-10-19T13:54:39;18.10;99.90
31759;DHT22;36334;51.366;0.020;2022-10-19T14:01:00;18.10;99.90
31759;DHT22;36334;51.366;0.020;2022-10-19T14:07:13;18.30;99.90
31759;DHT22;36334;51.366;0.020;2022-10-19T14:12:50;18.60;99.90
31759;DHT22;36334;51.366;0.020;2022-10-19T14:15:37;18.70;99.90
31759;DHT22;36334;51.366;0.020;2022-10-19T14:18:32;18.90;99.90
31759;DHT22;36334;51.366;0.020;2022-10-19T14:21:29;19.00;99.90
31759;DHT22;36334;51.366;0.020;2022-10-19T14:24:20;19.00;99.90
31759;DHT22;36334;51.366;0.020;2022-10-19T14:27:23;18.90;99.90
31759;DHT22;36334;51.366;0.020;2022-10-19T14:30:36;18.90;99.90
31759;DHT22;36334;51.366;0.020;2022-10-19T14:33:22;18.80;99.90
31759;DHT22;36334;51.366;0.020;2022-10-19T14:36:16;18.80;99.90
31759;DHT22;36334;51.366;0.020;2022-10-19T14:39:04;18.70;99.90
31759;DHT22;36334;51.366;0.020;2022-10-19T14:41:53;18.60;99.90
31759;DHT22;36334;51.366;0.020;2022-10-19T14:44:42;18.50;99.90
31759;DHT22;36334;51.366;0.020;2022-10-19T14:47:28;18.40;99.90
31759;DHT22;36334;51.366;0.020;2022-10-19T14:50:15;18.40;99.90
31759;DHT22;36334;51.366;0.020;2022-10-19T14:56:23;18.30;99.90
31759;DHT22;36334;51.366;0.020;2022-10-19T15:02:20;18.00;99.90
31759;DHT22;36334;51.366;0.020;2022-10-19T15:05:18;17.80;99.90
31759;DHT22;36334;51.366;0.020;2022-10-19T15:08:10;17.60;99.90
31759;DHT22;36334;51.366;0.020;2022-10-19T15:11:03;17.50;99.90
31759;DHT22;36334;51.366;0.020;2022-10-19T15:13:59;17.50;99.90
31759;DHT22;36334;51.366;0.020;2022-10-19T15:16:58;17.50;99.90
31759;DHT22;36334;51.366;0.020;2022-10-19T15:19:44;17.60;99.90
31759;DHT22;36334;51.366;0.020;2022-10-19T15:28:31;17.40;99.90
31759;DHT22;36334;51.366;0.020;2022-10-19T15:31:27;17.20;99.90
31759;DHT22;36334;51.366;0.020;2022-10-19T15:34:23;17.10;99.90
31759;DHT22;36334;51.366;0.020;2022-10-19T15:37:19;16.90;99.90
31759;DHT22;36334;51.366;0.020;2022-10-19T15:40:11;16.80;99.90
31759;DHT22;36334;51.366;0.020;2022-10-19T15:42:58;16.60;99.90
31759;DHT22;36334;51.366;0.020;2022-10-19T15:45:44;16.50;99.90
31759;DHT22;36334;51.366;0.020;2022-10-19T15:54:14;16.30;99.90
31759;DHT22;36334;51.366;0.020;2022-10-19T15:57:02;16.30;99.90
31759;DHT22;36334;51.366;0.020;2022-10-19T15:59:48;16.20;99.90
31759;DHT22;36334;51.366;0.020;2022-10-19T16:02:34;16.10;99.90
31759;DHT22;36334;51.366;0.020;2022-10-19T16:05:20;16.00;99.90
31759;DHT22;36334;51.366;0.020;2022-10-19T16:08:06;15.90;99.90
31759;DHT22;36334;51.366;0.020;2022-10-19T16:10:57;15.90;99.90
31759;DHT22;36334;51.366;0.020;2022-10-19T16:13:43;15.80;99.90
31759;DHT22;36334;51.366;0.020;2022-10-19T16:16:31;15.70;99.90
31759;DHT22;36334;51.366;0.020;2022-10-19T16:19:17;15.70;99.90
31759;DHT22;36334;51.366;0.020;2022-10-19T16:22:03;15.60;99.90
31759;DHT22;36334;51.366;0.020;2022-10-19T16:24:50;15.50;99.90
31759;DHT22;36334;51.366;0.020;2022-10-19T16:27:37;15.50;99.90
31759;DHT22;36334;51.366;0.020;2022-10-19T16:30:23;15.40;99.90
31759;DHT22;36334;51.366;0.020;2022-10-19T16:33:12;15.30;99.90
31759;DHT22;36334;51.366;0.020;2022-10-19T16:36:01;15.20;99.90
31759;DHT22;36334;51.366;0.020;2022-10-19T16:38:48;15.20;99.90
31759;DHT22;36334;51.366;0.020;2022-10-19T16:41:42;15.10;99.90
31759;DHT22;36334;51.366;0.020;2022-10-19T16:44:28;15.00;99.90
31759;DHT22;36334;51.366;0.020;2022-10-19T16:47:14;15.00;99.90
31759;DHT22;36334;51.366;0.020;2022-10-19T16:50:03;14.90;99.90
31759;DHT22;36334;51.366;0.020;2022-10-19T16:53:11;14.90;99.90
31759;DHT22;36334;51.366;0.020;2022-10-19T16:56:05;14.80;99.90
31759;DHT22;36334;51.366;0.020;2022-10-19T16:58:53;14.70;99.90
31759;DHT22;36334;51.366;0.020;2022-10-19T17:01:41;14.70;99.90
31759;DHT22;36334;51.366;0.020;2022-10-19T17:04:30;14.70;99.90
31759;DHT22;36334;51.366;0.020;2022-10-19T17:07:17;14.60;99.90
31759;DHT22;36334;51.366;0.020;2022-10-19T17:10:03;14.60;99.90
31759;DHT22;36334;51.366;0.020;2022-10-19T17:12:40;14.60;99.90
31759;DHT22;36334;51.366;0.020;2022-10-19T17:15:26;14.50;99.90
31759;DHT22;36334;51.366;0.020;2022-10-19T17:18:31;14.50;99.90
31759;DHT22;36334;51.366;0.020;2022-10-19T17:21:20;14.50;99.90
31759;DHT22;36334;51.366;0.020;2022-10-19T17:24:14;14.50;99.90
31759;DHT22;36334;51.366;0.020;2022-10-19T17:27:06;14.40;99.90
31759;DHT22;36334;51.366;0.020;2022-10-19T17:29:52;14.40;99.90
31759;DHT22;36334;51.366;0.020;2022-10-19T17:32:38;14.40;99.90
31759;DHT22;36334;51.366;0.020;2022-10-19T17:35:25;14.40;99.90
31759;DHT22;36334;51.366;0.020;2022-10-19T17:38:11;14.30;99.90
31759;DHT22;36334;51.366;0.020;2022-10-19T17:41:01;14.30;99.90
31759;DHT22;36334;51.366;0.020;2022-10-19T17:43:49;14.30;99.90
31759;DHT22;36334;51.366;0.020;2022-10-19T17:46:38;14.30;99.90
31759;DHT22;36334;51.366;0.020;2022-10-19T17:49:24;14.30;99.90
31759;DHT22;36334;51.366;0.020;2022-10-19T17:52:11;14.30;99.90
31759;DHT22;36334;51.366;0.020;2022-10-19T17:54:57;14.30;99.90
31759;DHT22;36334;51.366;0.020;2022-10-19T17:57:57;14.30;99.90
31759;DHT22;36334;51.366;0.020;2022-10-19T18:00:44;14.20;99.90
31759;DHT22;36334;51.366;0.020;2022-10-19T18:03:31;14.30;99.90
31759;DHT22;36334;51.366;0.020;2022-10-19T18:06:20;14.20;99.90
31759;DHT22;36334;51.366;0.020;2022-10-19T18:09:08;14.30;99.90
31759;DHT22;36334;51.366;0.020;2022-10-19T18:11:54;14.30;99.90
31759;DHT22;36334;51.366;0.020;2022-10-19T18:14:40;14.20;99.90
31759;DHT22;36334;51.366;0.020;2022-10-19T18:17:26;14.20;99.90
31759;DHT22;36334;51.366;0.020;2022-10-19T18:20:15;14.20;99.90
31759;DHT22;36334;51.366;0.020;2022-10-19T18:23:01;14.20;99.90
31759;DHT22;36334;51.366;0.020;2022-10-19T18:25:47;14.20;99.90
31759;DHT22;36334;51.366;0.020;2022-10-19T18:28:40;14.30;99.90
31759;DHT22;36334;51.366;0.020;2022-10-19T18:31:30;14.30;99.90
31759;DHT22;36334;51.366;0.020;2022-10-19T18:34:19;14.30;99.90
31759;DHT22;36334;51.366;0.020;2022-10-19T18:37:06;14.40;99.90
31759;DHT22;36334;51.366;0.020;2022-10-19T18:39:52;14.40;99.90
31759;DHT22;36334;51.366;0.020;2022-10-19T18:42:38;14.40;99.90
31759;DHT22;36334;51.366;0.020;2022-10-19T18:45:24;14.40;99.90
31759;DHT22;36334;51.366;0.020;2022-10-19T18:48:13;14.50;99.90
31759;DHT22;36334;51.366;0.020;2022-10-19T18:51:03;14.50;99.90
31759;DHT22;36334;51.366;0.020;2022-10-19T18:53:51;14.50;99.90
31759;DHT22;36334;51.366;0.020;2022-10-19T18:56:37;14.50;99.90
31759;DHT22;36334;51.366;0.020;2022-10-19T18:59:23;14.50;99.90
31759;DHT22;36334;51.366;0.020;2022-10-19T19:02:10;14.50;99.90
31759;DHT22;36334;51.366;0.020;2022-10-19T19:05:16;14.50;99.90
31759;DHT22;36334;51.366;0.020;2022-10-19T19:08:02;14.50;99.90
31759;DHT22;36334;51.366;0.020;2022-10-19T19:10:48;14.50;99.90
31759;DHT22;36334;51.366;0.020;2022-10-19T19:13:36;14.50;99.90
31759;DHT22;36334;51.366;0.020;2022-10-19T19:16:24;14.50;99.90
31759;DHT22;36334;51.366;0.020;2022-10-19T19:19:14;14.50;99.90
31759;DHT22;36334;51.366;0.020;2022-10-19T19:22:03;14.50;99.90
31759;DHT22;36334;51.366;0.020;2022-10-19T19:24:54;14.50;99.90
31759;DHT22;36334;51.366;0.020;2022-10-19T19:27:40;14.50;99.90
31759;DHT22;36334;51.366;0.020;2022-10-19T19:30:26;14.50;99.90
31759;DHT22;36334;51.366;0.020;2022-10-19T19:33:13;14.50;99.90
31759;DHT22;36334;51.366;0.020;2022-10-19T19:36:04;14.50;99.90
31759;DHT22;36334;51.366;0.020;2022-10-19T19:38:50;14.50;99.90
31759;DHT22;36334;51.366;0.020;2022-10-19T19:41:39;14.50;99.90
31759;DHT22;36334;51.366;0.020;2022-10-19T19:44:25;14.50;99.90
31759;DHT22;36334;51.366;0.020;2022-10-19T19:47:14;14.50;99.90
31759;DHT22;36334;51.366;0.020;2022-10-19T19:50:04;14.50;99.90
31759;DHT22;36334;51.366;0.020;2022-10-19T19:52:50;14.50;99.90
31759;DHT22;36334;51.366;0.020;2022-10-19T19:55:37;14.60;99.90
31759;DHT22;36334;51.366;0.020;2022-10-19T19:58:24;14.60;99.90
31759;DHT22;36334;51.366;0.020;2022-10-19T20:01:16;14.60;99.90